createdAt,value
2018-12-15T00:00:33.926Z,16.60
2018-12-15T00:03:01.358Z,17.53
2018-12-15T00:05:28.758Z,17.50
2018-12-15T00:07:56.175Z,17.27
2018-12-15T00:10:23.566Z,17.80
2018-12-15T00:12:50.993Z,18.40
2018-12-15T00:15:18.478Z,17.37
2018-12-15T00:17:45.887Z,15.97
2018-12-15T00:20:13.279Z,16.40
2018-12-15T00:22:40.742Z,16.80
2018-12-15T00:25:08.191Z,17.20
2018-12-15T00:27:35.618Z,15.30
2018-12-15T00:30:04.841Z,17.10
2018-12-15T00:32:32.274Z,17.43
2018-12-15T00:34:59.666Z,16.00
2018-12-15T00:37:27.278Z,15.87
2018-12-15T00:39:54.738Z,15.67
2018-12-15T00:42:25.929Z,16.10
2018-12-15T00:44:53.351Z,15.10
2018-12-15T00:47:20.913Z,14.10
2018-12-15T00:49:48.295Z,14.27
2018-12-15T00:52:15.723Z,16.13
2018-12-15T00:54:43.126Z,15.10
2018-12-15T00:57:10.526Z,14.43
2018-12-15T00:59:37.987Z,13.20
2018-12-15T01:02:05.413Z,15.07
2018-12-15T01:04:32.901Z,13.50
2018-12-15T01:07:00.295Z,15.07
2018-12-15T01:09:27.715Z,13.33
2018-12-15T01:11:55.161Z,13.97
2018-12-15T01:14:22.622Z,14.00
2018-12-15T01:16:50.015Z,15.40
2018-12-15T01:19:17.626Z,13.70
2018-12-15T01:21:45.032Z,14.60
2018-12-15T01:24:12.428Z,14.73
2018-12-15T01:26:39.818Z,13.30
2018-12-15T01:29:07.210Z,13.50
2018-12-15T01:31:34.602Z,15.00
2018-12-15T01:34:02.761Z,12.93
2018-12-15T01:36:30.241Z,13.80
2018-12-15T01:38:57.622Z,13.57
2018-12-15T01:41:25.014Z,12.27
2018-12-15T01:43:52.419Z,13.20
2018-12-15T01:46:19.814Z,14.70
2018-12-15T01:48:47.197Z,13.80
2018-12-15T01:51:14.662Z,12.20
2018-12-15T01:53:42.063Z,13.37
2018-12-15T01:56:09.450Z,12.90
2018-12-15T01:58:36.839Z,14.53
2018-12-15T02:01:04.230Z,13.87
2018-12-15T02:03:31.653Z,12.60
2018-12-15T02:05:59.123Z,13.70
2018-12-15T02:08:26.522Z,13.37
2018-12-15T02:10:53.918Z,13.80
2018-12-15T02:13:21.382Z,13.70
2018-12-15T02:15:48.844Z,13.37
2018-12-15T02:18:16.231Z,12.70
2018-12-15T02:20:43.659Z,13.40
2018-12-15T02:23:11.110Z,13.60
2018-12-15T02:25:38.657Z,14.80
2018-12-15T02:28:06.127Z,14.33
2018-12-15T02:30:33.524Z,12.80
2018-12-15T02:33:00.934Z,13.20
2018-12-15T02:35:28.402Z,13.90
2018-12-15T02:37:55.787Z,13.03
2018-12-15T02:40:23.204Z,12.87
2018-12-15T02:42:50.654Z,12.60
2018-12-15T02:45:18.110Z,13.17
2018-12-15T02:47:45.571Z,14.10
2018-12-15T02:50:12.959Z,12.63
2018-12-15T02:52:40.450Z,13.57
2018-12-15T02:55:07.842Z,13.60
2018-12-15T02:57:35.395Z,13.50
2018-12-15T03:00:03.064Z,14.03
2018-12-15T03:02:30.519Z,12.60
2018-12-15T03:04:57.982Z,15.83
2018-12-15T03:07:25.432Z,13.50
2018-12-15T03:09:52.812Z,12.57
2018-12-15T03:12:20.251Z,15.27
2018-12-15T03:14:47.640Z,15.37
2018-12-15T03:17:15.121Z,13.40
2018-12-15T03:19:42.612Z,13.43
2018-12-15T03:22:10.177Z,14.20
2018-12-15T03:24:37.730Z,14.70
2018-12-15T03:27:05.178Z,14.47
2018-12-15T03:29:32.585Z,14.10
2018-12-15T03:32:00.098Z,13.73
2018-12-15T03:34:27.673Z,13.83
2018-12-15T03:36:55.218Z,14.47
2018-12-15T03:39:22.914Z,14.23
2018-12-15T03:41:50.311Z,13.93
2018-12-15T03:44:17.698Z,13.70
2018-12-15T03:46:45.152Z,15.70
2018-12-15T03:49:12.576Z,14.87
2018-12-15T03:51:40.038Z,15.80
2018-12-15T03:54:07.431Z,15.40
2018-12-15T03:56:34.998Z,15.00
2018-12-15T03:59:02.479Z,13.47
2018-12-15T04:01:29.998Z,14.40
2018-12-15T04:03:57.548Z,15.20
2018-12-15T04:06:25.015Z,15.47
2018-12-15T04:08:52.404Z,16.33
2018-12-15T04:11:19.918Z,16.43
2018-12-15T04:13:47.378Z,15.93
2018-12-15T04:16:14.827Z,15.40
2018-12-15T04:18:42.286Z,15.73
2018-12-15T04:21:09.747Z,16.73
2018-12-15T04:23:37.142Z,17.30
2018-12-15T04:26:04.555Z,16.83
2018-12-15T04:28:32.020Z,16.43
2018-12-15T04:30:59.482Z,17.63
2018-12-15T04:33:26.927Z,18.70
2018-12-15T04:35:54.394Z,18.00
2018-12-15T04:38:21.844Z,17.03
2018-12-15T04:40:49.303Z,18.27
2018-12-15T04:43:16.754Z,17.43
2018-12-15T04:45:44.222Z,19.43
2018-12-15T04:48:11.730Z,17.83
2018-12-15T04:50:39.226Z,16.63
2018-12-15T04:53:06.690Z,20.20
2018-12-15T04:55:34.247Z,17.77
2018-12-15T04:58:01.750Z,18.20
2018-12-15T05:00:29.263Z,17.90
2018-12-15T05:02:56.719Z,19.53
2018-12-15T05:05:24.175Z,18.43
2018-12-15T05:07:52.252Z,18.37
2018-12-15T05:10:19.641Z,19.77
2018-12-15T05:12:47.026Z,18.47
2018-12-15T05:15:14.513Z,19.90
2018-12-15T05:17:41.895Z,19.50
2018-12-15T05:20:09.317Z,19.70
2018-12-15T05:22:36.800Z,20.70
2018-12-15T05:25:05.079Z,18.77
2018-12-15T05:27:32.466Z,17.23
2018-12-15T05:29:59.866Z,18.53
2018-12-15T05:32:27.343Z,20.17
2018-12-15T05:34:54.726Z,21.63
2018-12-15T05:37:22.123Z,19.87
2018-12-15T05:39:49.588Z,18.80
2018-12-15T05:42:17.053Z,21.17
2018-12-15T05:44:44.457Z,20.40
2018-12-15T05:47:11.854Z,19.63
2018-12-15T05:49:39.321Z,19.80
2018-12-15T05:52:06.878Z,19.73
2018-12-15T05:54:34.266Z,20.40
2018-12-15T05:57:01.662Z,21.37
2018-12-15T05:59:29.048Z,20.03
2018-12-15T06:01:56.735Z,22.00
2018-12-15T06:04:24.130Z,21.90
2018-12-15T06:06:51.519Z,21.07
2018-12-15T06:09:18.903Z,22.70
2018-12-15T06:11:46.297Z,21.17
2018-12-15T06:14:13.690Z,20.70
2018-12-15T06:16:41.135Z,22.30
2018-12-15T06:19:08.590Z,21.60
2018-12-15T06:21:36.050Z,21.93
2018-12-15T06:24:03.435Z,21.57
2018-12-15T06:26:30.869Z,21.77
2018-12-15T06:28:58.330Z,21.90
2018-12-15T06:31:25.770Z,22.15
2018-12-15T06:33:53.230Z,21.00
2018-12-15T06:36:20.630Z,22.07
2018-12-15T06:38:48.037Z,20.13
2018-12-15T06:41:15.434Z,22.67
2018-12-15T06:43:43.137Z,19.13
2018-12-15T06:46:10.530Z,21.67
2018-12-15T06:48:38.344Z,20.73
2018-12-15T06:51:05.937Z,20.73
2018-12-15T06:53:33.389Z,22.17
2018-12-15T06:56:00.791Z,22.03
2018-12-15T06:58:28.202Z,20.77
2018-12-15T07:00:55.603Z,21.40
2018-12-15T07:03:23.014Z,18.13
2018-12-15T07:05:50.438Z,21.80
2018-12-15T07:08:17.878Z,22.97
2018-12-15T07:10:45.292Z,21.50
2018-12-15T07:13:12.758Z,22.47
2018-12-15T07:15:40.302Z,20.17
2018-12-15T07:18:07.757Z,17.37
2018-12-15T07:20:35.155Z,21.30
2018-12-15T07:23:02.575Z,21.43
2018-12-15T07:25:29.966Z,22.00
2018-12-15T07:27:57.382Z,20.33
2018-12-15T07:30:24.978Z,22.33
2018-12-15T07:32:52.399Z,21.70
2018-12-15T07:35:19.862Z,21.97
2018-12-15T07:37:47.305Z,17.40
2018-12-15T07:40:14.762Z,21.83
2018-12-15T07:42:42.226Z,20.50
2018-12-15T07:45:09.739Z,20.20
2018-12-15T07:47:37.145Z,21.50
2018-12-15T07:50:04.742Z,20.70
2018-12-15T07:52:32.150Z,19.87
2018-12-15T07:54:59.539Z,19.10
2018-12-15T07:57:26.939Z,20.07
2018-12-15T07:59:54.318Z,18.50
2018-12-15T08:02:21.778Z,20.27
2018-12-15T08:04:49.234Z,18.07
2018-12-15T08:07:16.638Z,21.10
2018-12-15T08:09:44.042Z,19.60
2018-12-15T08:12:17.534Z,19.77
2018-12-15T08:14:44.939Z,21.83
2018-12-15T08:17:12.350Z,21.50
2018-12-15T08:19:39.735Z,18.07
2018-12-15T08:22:07.169Z,18.40
2018-12-15T08:24:34.558Z,19.00
2018-12-15T08:27:01.950Z,18.83
2018-12-15T08:29:29.346Z,19.17
2018-12-15T08:31:56.742Z,18.30
2018-12-15T08:34:24.145Z,17.40
2018-12-15T08:36:51.598Z,19.37
2018-12-15T08:39:19.057Z,20.17
2018-12-15T08:41:46.513Z,20.43
2018-12-15T08:44:13.946Z,18.03
2018-12-15T08:46:41.420Z,19.83
2018-12-15T08:49:08.802Z,18.27
2018-12-15T08:51:36.234Z,16.77
2018-12-15T08:54:03.728Z,17.60
2018-12-15T08:56:31.154Z,16.80
2018-12-15T08:58:58.698Z,16.27
2018-12-15T09:01:26.091Z,17.97
2018-12-15T09:03:53.499Z,18.60
2018-12-15T09:06:20.891Z,17.60
2018-12-15T09:08:48.280Z,16.50
2018-12-15T09:11:15.683Z,16.40
2018-12-15T09:13:43.145Z,16.97
2018-12-15T09:16:10.535Z,14.70
2018-12-15T09:18:37.938Z,17.20
2018-12-15T09:21:05.406Z,17.70
2018-12-15T09:23:32.816Z,16.97
2018-12-15T09:26:00.209Z,16.10
2018-12-15T09:28:27.685Z,13.70
2018-12-15T09:30:55.081Z,15.23
2018-12-15T09:33:22.526Z,16.03
2018-12-15T09:35:49.954Z,12.40
2018-12-15T09:38:17.398Z,14.37
2018-12-15T09:40:44.786Z,13.90
2018-12-15T09:43:12.186Z,12.97
2018-12-15T09:45:39.675Z,13.07
2018-12-15T09:48:07.061Z,13.30
2018-12-15T09:50:34.500Z,13.67
2018-12-15T09:53:01.941Z,14.00
2018-12-15T09:55:29.370Z,11.03
2018-12-15T09:57:56.924Z,12.03
2018-12-15T10:00:24.324Z,13.13
2018-12-15T10:02:51.777Z,13.47
2018-12-15T10:05:19.242Z,12.20
2018-12-15T10:07:46.656Z,12.00
2018-12-15T10:10:14.094Z,13.10
2018-12-15T10:12:41.514Z,13.40
2018-12-15T10:15:08.954Z,11.90
2018-12-15T10:17:36.341Z,13.40
2018-12-15T10:20:05.196Z,13.33
2018-12-15T10:22:32.578Z,11.63
2018-12-15T10:24:59.990Z,12.17
2018-12-15T10:27:27.662Z,11.40
2018-12-15T10:30:00.829Z,12.30
2018-12-15T10:32:33.968Z,11.53
2018-12-15T10:35:01.353Z,12.37
2018-12-15T10:37:28.763Z,10.97
2018-12-15T10:39:56.182Z,12.70
2018-12-15T10:42:23.571Z,11.80
2018-12-15T10:44:51.018Z,12.40
2018-12-15T10:47:18.483Z,12.00
2018-12-15T10:49:45.968Z,12.37
2018-12-15T10:52:13.423Z,11.80
2018-12-15T10:54:40.862Z,12.77
2018-12-15T10:57:08.322Z,11.50
2018-12-15T10:59:35.714Z,10.00
2018-12-15T11:02:03.223Z,10.47
2018-12-15T11:04:30.606Z,11.27
2018-12-15T11:06:58.031Z,11.03
2018-12-15T11:09:25.485Z,9.83
2018-12-15T11:11:52.962Z,10.90
2018-12-15T11:14:20.407Z,11.90
2018-12-15T11:16:47.970Z,10.60
2018-12-15T11:19:15.326Z,9.90
2018-12-15T11:21:42.726Z,11.90
2018-12-15T11:24:10.118Z,10.93
2018-12-15T11:26:37.510Z,9.90
2018-12-15T11:29:04.898Z,9.70
2018-12-15T11:31:32.295Z,11.40
2018-12-15T11:33:59.679Z,10.20
2018-12-15T11:36:27.087Z,9.33
2018-12-15T11:38:54.463Z,8.77
2018-12-15T11:41:21.858Z,8.43
2018-12-15T11:43:49.254Z,8.97
2018-12-15T11:46:16.645Z,8.97
2018-12-15T11:48:44.185Z,8.00
2018-12-15T11:51:11.629Z,8.37
2018-12-15T11:53:39.193Z,8.60
2018-12-15T11:56:06.673Z,8.90
2018-12-15T11:58:34.122Z,10.10
2018-12-15T12:01:01.527Z,9.47
2018-12-15T12:03:28.929Z,9.40
2018-12-15T12:05:56.383Z,10.50
2018-12-15T12:08:23.843Z,10.60
2018-12-15T12:10:51.286Z,10.13
2018-12-15T12:13:18.749Z,9.57
2018-12-15T12:15:46.212Z,8.80
2018-12-15T12:18:13.662Z,9.10
2018-12-15T12:20:41.414Z,8.43
2018-12-15T12:23:08.878Z,9.67
2018-12-15T12:25:36.326Z,9.67
2018-12-15T12:28:03.769Z,9.03
2018-12-15T12:30:31.255Z,11.10
2018-12-15T12:32:59.407Z,9.77
2018-12-15T12:35:26.974Z,10.40
2018-12-15T12:37:54.370Z,10.47
2018-12-15T12:40:21.795Z,11.63
2018-12-15T12:42:49.275Z,10.30
2018-12-15T12:45:16.719Z,10.80
2018-12-15T12:47:44.114Z,10.70
2018-12-15T12:50:11.502Z,10.60
2018-12-15T12:52:38.993Z,10.17
2018-12-15T12:55:06.388Z,11.07
2018-12-15T12:57:33.781Z,10.77
2018-12-15T13:00:01.170Z,9.90
2018-12-15T13:02:28.608Z,10.50
2018-12-15T13:04:56.127Z,9.33
2018-12-15T13:07:23.574Z,10.70
2018-12-15T13:09:50.975Z,9.23
2018-12-15T13:12:18.426Z,9.70
2018-12-15T13:14:45.819Z,9.37
2018-12-15T13:17:13.220Z,11.00
2018-12-15T13:19:40.602Z,8.43
2018-12-15T13:22:08.002Z,9.53
2018-12-15T13:24:35.390Z,9.33
2018-12-15T13:27:02.791Z,10.27
2018-12-15T13:29:30.223Z,10.60
2018-12-15T13:31:57.671Z,10.50
2018-12-15T13:34:25.131Z,8.93
2018-12-15T13:36:52.695Z,11.20
2018-12-15T13:39:20.150Z,10.53
2018-12-15T13:41:47.607Z,10.90
2018-12-15T13:44:15.016Z,12.07
2018-12-15T13:46:42.399Z,11.40
2018-12-15T13:49:09.871Z,11.17
2018-12-15T13:51:37.271Z,11.47
2018-12-15T13:54:04.802Z,11.97
2018-12-15T13:56:32.240Z,11.70
2018-12-15T13:58:59.706Z,12.10
2018-12-15T14:01:27.162Z,13.60
2018-12-15T14:03:54.620Z,13.80
2018-12-15T14:06:22.054Z,12.23
2018-12-15T14:08:49.535Z,12.20
2018-12-15T14:11:16.991Z,12.43
2018-12-15T14:13:44.378Z,14.27
2018-12-15T14:16:11.910Z,13.73
2018-12-15T14:18:39.354Z,13.80
2018-12-15T14:21:06.815Z,12.50
2018-12-15T14:23:34.273Z,12.93
2018-12-15T14:26:03.646Z,12.80
2018-12-15T14:28:31.041Z,10.67
2018-12-15T14:30:58.518Z,11.23
2018-12-15T14:33:25.919Z,12.40
2018-12-15T14:35:53.366Z,11.97
2018-12-15T14:38:20.771Z,10.90
2018-12-15T14:40:48.167Z,11.50
2018-12-15T14:43:15.554Z,10.70
2018-12-15T14:45:42.947Z,13.03
2018-12-15T14:48:10.379Z,12.10
2018-12-15T14:50:37.771Z,8.70
2018-12-15T14:53:05.286Z,13.07
2018-12-15T14:55:32.746Z,12.53
2018-12-15T14:58:00.207Z,11.80
2018-12-15T15:00:27.608Z,11.23
2018-12-15T15:02:55.009Z,12.50
2018-12-15T15:05:22.473Z,12.67
2018-12-15T15:07:49.864Z,13.10
2018-12-15T15:10:17.378Z,9.10
2018-12-15T15:12:44.861Z,10.93
2018-12-15T15:15:12.253Z,9.50
2018-12-15T15:17:39.643Z,10.23
2018-12-15T15:20:08.910Z,10.30
2018-12-15T15:22:36.410Z,10.53
2018-12-15T15:25:05.094Z,11.50
2018-12-15T15:27:32.617Z,11.03
2018-12-15T15:29:59.994Z,11.20
2018-12-15T15:32:27.386Z,10.50
2018-12-15T15:34:54.783Z,9.83
2018-12-15T15:37:22.173Z,10.60
2018-12-15T15:39:49.576Z,8.83
2018-12-15T15:42:17.016Z,9.13
2018-12-15T15:44:44.543Z,8.67
2018-12-15T15:47:11.999Z,8.80
2018-12-15T15:49:39.450Z,9.17
2018-12-15T15:52:06.906Z,7.50
2018-12-15T15:54:34.587Z,9.83
2018-12-15T15:57:02.029Z,9.57
2018-12-15T15:59:29.498Z,9.40
2018-12-15T16:01:56.942Z,9.20
2018-12-15T16:04:24.402Z,11.13
2018-12-15T16:06:51.880Z,9.77
2018-12-15T16:09:19.275Z,8.90
2018-12-15T16:11:46.658Z,9.50
2018-12-15T16:14:14.126Z,8.90
2018-12-15T16:16:41.518Z,8.17
2018-12-15T16:19:08.934Z,7.20
2018-12-15T16:21:36.322Z,10.03
2018-12-15T16:24:03.760Z,8.70
2018-12-15T16:26:31.139Z,9.83
2018-12-15T16:28:58.530Z,9.67
2018-12-15T16:31:25.935Z,9.93
2018-12-15T16:33:53.480Z,10.63
2018-12-15T16:36:20.930Z,11.37
2018-12-15T16:38:48.323Z,10.00
2018-12-15T16:41:15.723Z,10.00
2018-12-15T16:43:43.198Z,9.63
2018-12-15T16:46:10.606Z,11.20
2018-12-15T16:48:38.000Z,11.60
2018-12-15T16:51:05.471Z,9.00
2018-12-15T16:53:32.864Z,10.03
2018-12-15T16:56:00.258Z,8.93
2018-12-15T16:58:27.719Z,10.47
2018-12-15T17:00:55.190Z,8.10
2018-12-15T17:03:22.646Z,11.03
2018-12-15T17:05:50.102Z,8.20
2018-12-15T17:08:17.562Z,9.40
2018-12-15T17:10:45.013Z,10.70
2018-12-15T17:13:12.414Z,9.20
2018-12-15T17:15:39.827Z,10.10
2018-12-15T17:18:07.291Z,10.37
2018-12-15T17:20:34.679Z,9.10
2018-12-15T17:23:02.094Z,9.67
2018-12-15T17:25:29.551Z,10.23
2018-12-15T17:27:56.930Z,9.83
2018-12-15T17:30:24.362Z,10.30
2018-12-15T17:32:51.822Z,10.90
2018-12-15T17:35:19.222Z,9.43
2018-12-15T17:37:46.635Z,11.40
2018-12-15T17:40:14.090Z,8.67
2018-12-15T17:42:41.539Z,11.30
2018-12-15T17:45:09.123Z,9.67
2018-12-15T17:47:36.564Z,12.10
2018-12-15T17:50:04.471Z,11.30
2018-12-15T17:52:31.878Z,12.40
2018-12-15T17:54:59.342Z,10.10
2018-12-15T17:57:26.742Z,8.43
2018-12-15T17:59:54.137Z,9.40
2018-12-15T18:02:21.607Z,10.63
2018-12-15T18:04:49.087Z,11.73
2018-12-15T18:07:16.486Z,9.77
2018-12-15T18:09:43.969Z,10.50
2018-12-15T18:12:11.434Z,11.77
2018-12-15T18:14:38.850Z,11.80
2018-12-15T18:17:06.246Z,9.97
2018-12-15T18:19:33.842Z,7.33
2018-12-15T18:22:01.268Z,11.93
2018-12-15T18:24:28.654Z,9.83
2018-12-15T18:26:56.049Z,7.37
2018-12-15T18:29:23.434Z,10.30
2018-12-15T18:31:50.886Z,9.00
2018-12-15T18:34:18.342Z,9.47
2018-12-15T18:36:45.805Z,8.80
2018-12-15T18:39:13.211Z,10.03
2018-12-15T18:41:40.614Z,6.80
2018-12-15T18:44:08.115Z,7.10
2018-12-15T18:46:35.526Z,8.27
2018-12-15T18:49:02.979Z,6.27
2018-12-15T18:51:30.543Z,6.63
2018-12-15T18:53:58.052Z,7.80
2018-12-15T18:56:25.527Z,7.40
2018-12-15T18:58:53.318Z,8.50
2018-12-15T19:01:20.839Z,8.80
2018-12-15T19:03:48.349Z,11.27
2018-12-15T19:06:15.744Z,9.60
2018-12-15T19:08:43.142Z,8.30
2018-12-15T19:11:10.549Z,10.67
2018-12-15T19:13:38.075Z,10.80
2018-12-15T19:16:05.532Z,8.30
2018-12-15T19:18:32.969Z,8.40
2018-12-15T19:21:00.467Z,9.90
2018-12-15T19:23:27.859Z,6.33
2018-12-15T19:25:55.351Z,9.17
2018-12-15T19:28:22.807Z,10.90
2018-12-15T19:30:50.197Z,8.40
2018-12-15T19:33:17.629Z,10.50
2018-12-15T19:35:45.073Z,10.07
2018-12-15T19:38:12.522Z,10.47
2018-12-15T19:40:39.929Z,12.43
2018-12-15T19:43:07.444Z,11.40
2018-12-15T19:45:34.842Z,10.37
2018-12-15T19:48:02.329Z,11.93
2018-12-15T19:50:29.740Z,10.87
2018-12-15T19:52:57.171Z,11.73
2018-12-15T19:55:24.582Z,11.43
2018-12-15T19:57:51.970Z,10.80
2018-12-15T20:00:19.408Z,10.23
2018-12-15T20:02:46.933Z,12.00
2018-12-15T20:05:14.345Z,8.50
2018-12-15T20:07:41.761Z,11.77
2018-12-15T20:10:09.163Z,10.37
2018-12-15T20:12:36.562Z,9.10
2018-12-15T20:15:04.359Z,8.50
2018-12-15T20:17:31.804Z,10.33
2018-12-15T20:19:59.295Z,9.67
2018-12-15T20:22:26.772Z,10.57
2018-12-15T20:24:54.173Z,9.67
2018-12-15T20:27:21.658Z,7.57
2018-12-15T20:29:49.062Z,10.33
2018-12-15T20:32:16.463Z,11.13
2018-12-15T20:34:43.936Z,10.90
2018-12-15T20:37:11.373Z,12.30
2018-12-15T20:39:38.833Z,12.00
2018-12-15T20:42:06.323Z,13.43
2018-12-15T20:44:33.727Z,9.40
2018-12-15T20:47:01.211Z,10.30
2018-12-15T20:49:28.683Z,8.93
2018-12-15T20:51:56.148Z,9.10
2018-12-15T20:54:23.574Z,9.70
2018-12-15T20:56:50.988Z,8.33
2018-12-15T20:59:18.481Z,8.97
2018-12-15T21:01:45.951Z,10.53
2018-12-15T21:04:13.350Z,8.37
2018-12-15T21:06:40.791Z,7.33
2018-12-15T21:09:08.227Z,10.40
2018-12-15T21:11:35.691Z,10.30
2018-12-15T21:14:03.093Z,8.47
2018-12-15T21:16:30.562Z,9.40
2018-12-15T21:18:58.154Z,7.70
2018-12-15T21:21:25.608Z,9.07
2018-12-15T21:23:53.037Z,8.77
2018-12-15T21:26:20.549Z,9.80
2018-12-15T21:28:47.945Z,11.60
2018-12-15T21:31:15.461Z,12.20
2018-12-15T21:33:42.890Z,9.30
2018-12-15T21:36:10.375Z,11.57
2018-12-15T21:38:37.807Z,10.30
2018-12-15T21:41:05.274Z,10.80
2018-12-15T21:43:33.130Z,8.77
2018-12-15T21:46:00.627Z,12.37
2018-12-15T21:48:28.022Z,10.10
2018-12-15T21:50:55.422Z,10.93
2018-12-15T21:53:22.855Z,8.90
2018-12-15T21:55:50.323Z,11.10
2018-12-15T21:58:17.718Z,10.57
2018-12-15T22:00:45.122Z,11.43
2018-12-15T22:03:12.519Z,9.03
2018-12-15T22:05:39.930Z,9.60
2018-12-15T22:08:07.327Z,10.73
2018-12-15T22:10:36.097Z,8.83
2018-12-15T22:13:03.711Z,9.20
2018-12-15T22:15:31.196Z,9.40
2018-12-15T22:17:58.603Z,12.10
2018-12-15T22:20:26.018Z,11.40
2018-12-15T22:22:53.485Z,11.37
2018-12-15T22:25:20.894Z,10.90
2018-12-15T22:27:48.274Z,10.27
2018-12-15T22:30:15.676Z,10.83
2018-12-15T22:32:43.079Z,10.63
2018-12-15T22:35:10.570Z,11.83
2018-12-15T22:37:37.961Z,8.20
2018-12-15T22:40:05.835Z,8.77
2018-12-15T22:42:33.324Z,11.33
2018-12-15T22:45:00.783Z,11.10
2018-12-15T22:47:28.190Z,10.47
2018-12-15T22:49:55.593Z,10.67
2018-12-15T22:52:22.987Z,11.40
2018-12-15T22:54:50.437Z,11.87
2018-12-15T22:57:17.843Z,11.97
2018-12-15T22:59:45.231Z,12.87
2018-12-15T23:02:12.633Z,11.73
2018-12-15T23:04:40.126Z,13.33
2018-12-15T23:07:07.530Z,10.80
2018-12-15T23:09:35.860Z,11.83
2018-12-15T23:12:03.427Z,11.90
2018-12-15T23:14:30.870Z,11.70
2018-12-15T23:16:58.332Z,13.57
2018-12-15T23:19:25.794Z,10.80
2018-12-15T23:21:53.238Z,12.70
2018-12-15T23:24:20.699Z,12.60
2018-12-15T23:26:48.110Z,11.20
2018-12-15T23:29:15.616Z,13.57
2018-12-15T23:31:43.018Z,13.63
2018-12-15T23:34:10.526Z,13.97
2018-12-15T23:36:37.943Z,12.70
2018-12-15T23:39:06.568Z,15.60
2018-12-15T23:41:33.966Z,13.33
2018-12-15T23:44:01.371Z,13.83
2018-12-15T23:46:28.837Z,14.60
2018-12-15T23:48:56.286Z,14.87
2018-12-15T23:51:23.685Z,14.50
2018-12-15T23:53:51.086Z,11.10
2018-12-15T23:56:18.615Z,12.90
2018-12-15T23:58:46.011Z,14.47
